View Data : Daily Precipitation Reports By State


 
Iowa Daily Precipitation Reports
Display Date:
Showing 64 Records.    
DateTimeStation NumberStation NameTotal Precip in.New Snow in.Total Snow in.StateCountyView
2/25/2017  12:00 AM  IA-PK-21  Johnston 3.7 NNW  0.22 1.7 2.0 IAPolk  View
2/25/2017  5:00 AM  IA-DL-22  Waukee 1.2 ENE  0.22 NA NA IADallas  View
2/25/2017  5:00 AM  IA-MS-2  Marshalltown 1.4 ENE  0.04 NA NA IAMarshall  View
2/25/2017  6:00 AM  IA-BT-11  Mount Auburn 2.2 NNW  0.04 NA NA IABenton  View
2/25/2017  6:00 AM  IA-ID-4  Arthur 3.7 SSW  0.07 1.5 6.0 IAIda  View
2/25/2017  6:00 AM  IA-IA-13  Parnell 0.1 SSW  0.50 NA NA IAIowa  View
2/25/2017  6:00 AM  IA-LN-30  Center Point 0.6 NNW  0.10 0.5 0.5 IALinn  View
2/25/2017  6:00 AM  IA-LN-31  Cedar Rapids 2.7 NE  0.11 1.2 1.2 IALinn  View
2/25/2017  6:00 AM  IA-WB-3  Fort Dodge 1.6 ENE  0.07 2.0 NA IAWebster  View
2/25/2017  6:44 AM  IA-ST-37  Davenport 0.9 WNW  0.07 0.5 0.5 IAScott  View
2/25/2017  7:00 AM  IA-BH-3  Cedar Falls 0.4 WNW  0.06 1.2 0.5 IABlack Hawk  View
2/25/2017  7:00 AM  IA-BH-6  Waterloo 1.9 SSE  0.15 1.5 1.5 IABlack Hawk  View
2/25/2017  7:00 AM  IA-BH-18  Waterloo 1.0 SW  NA 1.0 1.0 IABlack Hawk  View
2/25/2017  7:00 AM  IA-CS-5  Atlantic 7.1 NNE  0.02 NA 0.3 IACass  View
2/25/2017  7:00 AM  IA-CW-2  New Hampton 0.4 SW  0.09 1.5 NA IAChickasaw  View
2/25/2017  7:00 AM  IA-CL-2  Osceola 2.5 WSW  0.07 1.0 1.0 IAClarke  View
2/25/2017  7:00 AM  IA-CN-1  De Witt 1.4 WNW  0.08 0.5 NA IAClinton  View
2/25/2017  7:00 AM  IA-CN-2  Calamus 2.0 NE  0.06 0.5 NA IAClinton  View
2/25/2017  7:00 AM  IA-CN-12  Lost Nation 0.3 S  0.08 0.7 NA IAClinton  View
2/25/2017  7:00 AM  IA-CF-2  Schleswig 0.4 NE  0.73 7.0 7.0 IACrawford  View
2/25/2017  7:00 AM  IA-DM-7  Burlington 6.5 SSW  T NA NA IADes Moines  View
2/25/2017  7:00 AM  IA-FY-2  Oelwein 0.8 WNW  0.12 1.5 1.5 IAFayette  View
2/25/2017  7:00 AM  IA-FR-1  Latimer 1.9 NE  0.03 NA NA IAFranklin  View
2/25/2017  7:00 AM  IA-HR-4  Persia 2.0 S  0.10 1.5 NA IAHarrison  View
2/25/2017  7:00 AM  IA-HY-4  New London 0.5 ESE  NA 0.8 0.8 IAHenry  View
2/25/2017  7:00 AM  IA-IA-6  Amana 4.7 W  0.10 1.2 NA IAIowa  View
2/25/2017  7:00 AM  IA-JH-1  Solon 0.3 ESE  0.09 0.8 1.0 IAJohnson  View
2/25/2017  7:00 AM  IA-JH-9  Kalona 7.3 NNW  0.04 NA NA IAJohnson  View
2/25/2017  7:00 AM  IA-KS-4  Algona 0.7 SE  0.15 2.3 11.0 IAKossuth  View
2/25/2017  7:00 AM  IA-LN-4  Cedar Rapids 3.4 NW  0.10 NA NA IALinn  View
2/25/2017  7:00 AM  IA-LN-7  Central City 6.7 W  0.07 0.7 0.7 IALinn  View
2/25/2017  7:00 AM  IA-LN-32  Cedar Rapids 2.2 WSW  0.07 0.5 0.5 IALinn  View
2/25/2017  7:00 AM  IA-MD-3  Earlham 2.0 W  0.23 3.5 NA IAMadison  View
2/25/2017  7:00 AM  IA-PA-5  West Bend 5.4 W  0.13 2.0 NA IAPalo Alto  View
2/25/2017  7:00 AM  IA-PK-3  Des Moines 4.5 WNW  0.36 NA NA IAPolk  View
2/25/2017  7:00 AM  IA-PK-14  Ankeny 2.3 WNW  0.10 1.8 NA IAPolk  View
2/25/2017  7:00 AM  IA-PK-37  Windsor Heights 0.8 SE  0.12 1.8 2.0 IAPolk  View
2/25/2017  7:00 AM  IA-PK-73  Des Moines 4.1 N  0.15 2.5 NA IAPolk  View
2/25/2017  7:00 AM  IA-PK-74  Saylorville 2.6 SSW  0.15 NA NA IAPolk  View
2/25/2017  7:00 AM  IA-PK-83  Altoona 1.5 SSE  0.04 NA NA IAPolk  View
2/25/2017  7:00 AM  IA-PT-2  Council Bluffs 3.4 NNE  0.28 2.7 3.5 IAPottawattamie  View
2/25/2017  7:00 AM  IA-SC-2  Odebolt 4.8 E  0.02 NA NA IASac  View
2/25/2017  7:00 AM  IA-SR-17  Ames 0.9 ENE  NA 1.8 1.8 IAStory  View
2/25/2017  7:00 AM  IA-TM-3  Dysart 3.1 N  0.13 1.4 NA IATama  View
2/25/2017  7:00 AM  IA-TY-2  New Market 4.7 N  0.07 0.9 0.9 IATaylor  View
2/25/2017  7:00 AM  IA-UN-1  Creston 0.7 NE  0.02 NA NA IAUnion  View
2/25/2017  7:00 AM  IA-WP-6  Ottumwa 2.2 NE  0.08 0.5 NA IAWapello  View
2/25/2017  7:00 AM  IA-WR-7  Indianola 0.8 SSW  0.12 1.2 1.0 IAWarren  View
2/25/2017  7:00 AM  IA-WB-5  Badger 3.1 NW  0.05 2.5 NA IAWebster  View
2/25/2017  7:00 AM  IA-WH-5  Decorah 4.9SE  0.14 1.1 1.5 IAWinneshiek  View
2/25/2017  7:20 AM  IA-UN-3  Murray 5.7 SW  0.07 NA NA IAUnion  View
2/25/2017  7:40 AM  IA-CW-3  New Hampton 0.3 NNW  0.12 1.5 NA IAChickasaw  View
2/25/2017  7:45 AM  IA-BC-2  Quasqueton 0.4 WSW  0.08 1.0 1.0 IABuchanan  View
2/25/2017  7:45 AM  IA-CG-4  Mason City 1.3 W  0.04 0.7 8.0 IACerro Gordo  View
2/25/2017  8:00 AM  IA-GT-3  Bagley 0.1 W  NA 1.0 1.0 IAGuthrie  View
2/25/2017  8:00 AM  IA-PT-13  Council Bluffs 2.1 SSE  0.10 1.0 2.5 IAPottawattamie  View
2/25/2017  8:00 AM  IA-ST-30  Eldridge 0.7 SSW  0.10 0.5 0.5 IAScott  View
2/25/2017  8:00 AM  IA-SX-6  Orange City 2.5 S  T T NA IASioux  View
2/25/2017  8:00 AM  IA-SR-29  Ames 2.5 W  0.16 NA NA IAStory  View
2/25/2017  8:40 AM  IA-WH-1  Decorah 7.9 ENE  0.20 2.0 2.5 IAWinneshiek  View
2/25/2017  8:45 AM  IA-JH-14  Swisher 0.4 NNE  0.07 1.0 1.0 IAJohnson  View
2/25/2017  9:00 AM  IA-ST-1  Le Claire 1.8 NNE  0.06 0.5 0.5 IAScott  View
2/25/2017  9:03 AM  IA-LN-27  Marion 1.7 NNW  0.05 NA NA IALinn  View
2/25/2017  9:30 AM  IA-PK-75  Clive 0.1 WSW  0.03 NA NA IAPolk  View